Time;durP1;ratioP1;P1;durP2;ratioP2;P2;SDS_P1;SDS_P2;PMS_P1;PMS_P2;Temp;Humidity;BMP_temperature;BMP_pressure;BME280_temperature;BME280_humidity;BME280_pressure;Samples;Min_cycle;Max_cycle;Signal;HPM_P1;HPM_P2
2022/11/15 00:01:00;;;;;;;108.23;78.63;;;;;;;5.66;100.00;101146.97;4994018;28;20470;-48
2022/11/15 00:03:28;;;;;;;99.07;73.30;;;;;;;5.65;100.00;101140.03;4993552;28;20906;-47
2022/11/15 00:06:02;;;;;;;102.47;77.43;;;;;;;5.66;100.00;101131.09;5004128;28;20417;-47
2022/11/15 00:08:31;;;;;;;102.90;77.03;;;;;;;5.67;100.00;101126.66;5012174;28;20477;-49
2022/11/15 00:11:01;;;;;;;115.37;78.27;;;;;;;5.64;100.00;101130.44;5011612;28;20453;-45
2022/11/15 00:13:29;;;;;;;101.53;74.33;;;;;;;5.65;100.00;101136.53;5011833;28;20834;-49
2022/11/15 00:15:58;;;;;;;120.63;79.07;;;;;;;5.66;100.00;101132.91;5011091;28;20982;-50
2022/11/15 00:18:26;;;;;;;111.63;71.83;;;;;;;5.65;100.00;101131.25;5012030;28;20433;-50
2022/11/15 00:20:54;;;;;;;111.93;71.57;;;;;;;5.62;100.00;101136.84;5011780;28;20496;-49
2022/11/15 00:23:21;;;;;;;115.77;74.50;;;;;;;5.59;100.00;101133.53;5011498;28;20441;-51
2022/11/15 00:25:56;;;;;;;96.73;67.27;;;;;;;5.54;100.00;101132.34;5011781;28;20507;-51
2022/11/15 00:28:25;;;;;;;117.80;72.83;;;;;;;5.53;100.00;101120.09;5012092;28;20495;-50
2022/11/15 00:30:53;;;;;;;104.20;70.87;;;;;;;5.51;100.00;101122.91;5011680;28;20457;-52
2022/11/15 00:33:21;;;;;;;96.43;71.00;;;;;;;5.47;100.00;101118.06;5011581;28;20422;-50
2022/11/15 00:35:48;;;;;;;109.57;74.33;;;;;;;5.48;100.00;101123.22;5011845;28;20434;-53
2022/11/15 00:38:16;;;;;;;108.03;76.07;;;;;;;5.45;100.00;101110.31;5011768;28;20429;-50
2022/11/15 00:40:43;;;;;;;102.60;71.97;;;;;;;5.45;100.00;101117.41;5011770;28;20495;-49
2022/11/15 00:43:11;;;;;;;108.73;74.70;;;;;;;5.43;100.00;101108.78;5012140;28;20437;-47
2022/11/15 00:45:40;;;;;;;121.20;76.20;;;;;;;5.42;100.00;101107.97;5011292;28;20881;-45
2022/11/15 00:48:08;;;;;;;116.53;74.50;;;;;;;5.40;100.00;101109.09;5011651;28;21052;-45
2022/11/15 00:50:35;;;;;;;104.00;70.87;;;;;;;5.39;100.00;101115.38;5011474;28;20436;-48
2022/11/15 00:53:03;;;;;;;108.27;73.90;;;;;;;5.35;100.00;101114.00;5002860;28;20430;-45
2022/11/15 00:55:30;;;;;;;110.57;73.60;;;;;;;5.33;100.00;101106.25;5009258;28;20519;-46
2022/11/15 00:57:58;;;;;;;119.03;73.77;;;;;;;5.35;100.00;101111.34;5011721;28;20487;-45
2022/11/15 01:00:25;;;;;;;103.67;70.80;;;;;;;5.36;100.00;101113.03;5011609;28;21012;-45
2022/11/15 01:02:55;;;;;;;90.47;66.13;;;;;;;5.35;100.00;101114.00;5011399;28;20850;-48
2022/11/15 01:05:22;;;;;;;102.87;70.27;;;;;;;5.30;100.00;101114.47;5010251;28;20468;-47
2022/11/15 01:07:52;;;;;;;94.43;67.57;;;;;;;5.30;100.00;101114.47;5011387;28;20564;-47
2022/11/15 01:10:20;;;;;;;97.53;71.83;;;;;;;5.30;100.00;101111.84;5011460;28;20483;-46
2022/11/15 01:12:47;;;;;;;92.67;69.77;;;;;;;5.31;100.00;101104.75;5011324;28;20453;-50
2022/11/15 01:15:15;;;;;;;98.43;70.80;;;;;;;5.31;100.00;101102.09;5010206;28;20510;-47
2022/11/15 01:17:43;;;;;;;104.53;73.10;;;;;;;5.30;100.00;101093.31;5011372;28;20954;-46
2022/11/15 01:20:12;;;;;;;103.50;70.77;;;;;;;5.30;100.00;101105.72;4995634;28;20509;-49
2022/11/15 01:22:40;;;;;;;87.97;69.37;;;;;;;5.29;100.00;101098.75;4991511;28;20508;-52
2022/11/15 01:25:08;;;;;;;100.77;68.87;;;;;;;5.27;100.00;101101.56;5005810;28;20473;-47
2022/11/15 01:27:35;;;;;;;95.57;68.17;;;;;;;5.24;100.00;101096.59;5012683;28;20473;-47
2022/11/15 01:30:03;;;;;;;96.40;73.63;;;;;;;5.23;100.00;101091.44;5014895;28;20488;-46
2022/11/15 01:32:31;;;;;;;112.20;72.97;;;;;;;5.23;100.00;101091.44;5060942;22;20482;-44
2022/11/15 01:34:58;;;;;;;89.40;70.57;;;;;;;5.24;100.00;101090.47;5046864;28;20463;-44
2022/11/15 01:37:27;;;;;;;99.70;73.53;;;;;;;5.27;100.00;101079.56;5054498;28;20978;-44
2022/11/15 01:39:55;;;;;;;99.47;73.23;;;;;;;5.33;100.00;101082.44;5054361;28;20440;-46
2022/11/15 01:42:22;;;;;;;113.40;77.70;;;;;;;5.38;100.00;101069.56;5054471;28;20505;-43
2022/11/15 01:44:52;;;;;;;99.63;73.83;;;;;;;5.41;100.00;101073.72;5052910;28;20455;-45
2022/11/15 01:47:23;;;;;;;86.27;71.80;;;;;;;5.44;100.00;101065.47;5054414;28;20427;-44
2022/11/15 01:49:56;;;;;;;113.43;74.83;;;;;;;5.45;100.00;101061.84;5054426;28;20789;-45
2022/11/15 01:52:27;;;;;;;99.77;74.20;;;;;;;5.45;100.00;101056.56;5040534;28;20848;-46
2022/11/15 01:55:02;;;;;;;100.07;74.13;;;;;;;5.44;100.00;101057.53;5039608;28;20929;-45
2022/11/15 01:57:30;;;;;;;99.87;70.57;;;;;;;5.40;100.00;101056.22;5034198;28;20424;-46
2022/11/15 02:00:01;;;;;;;84.43;69.07;;;;;;;5.38;100.00;101053.72;5034352;28;20505;-46
2022/11/15 02:02:28;;;;;;;87.23;70.97;;;;;;;5.34;100.00;101051.53;5034054;28;20872;-46
2022/11/15 02:04:56;;;;;;;93.77;68.40;;;;;;;5.31;100.00;101046.56;5033596;28;21097;-44
2022/11/15 02:07:24;;;;;;;89.27;71.37;;;;;;;5.27;100.00;101046.03;5034063;28;20435;-45
2022/11/15 02:09:52;;;;;;;99.23;73.20;;;;;;;5.24;100.00;101049.00;5034227;28;20444;-46
2022/11/15 02:12:22;;;;;;;98.47;73.03;;;;;;;5.23;100.00;101052.59;5033936;28;21131;-46
2022/11/15 02:14:54;;;;;;;94.73;70.80;;;;;;;5.24;100.00;101051.63;5033500;28;21058;-45
2022/11/15 02:17:48;;;;;;;105.13;73.83;;;;;;;5.21;100.00;101049.31;5034018;28;20432;-45
2022/11/15 02:20:40;;;;;;;95.03;72.90;;;;;;;5.26;100.00;101043.53;5033833;28;20482;-46
2022/11/15 02:23:31;;;;;;;88.67;68.83;;;;;;;5.33;100.00;101044.59;5034073;28;20502;-48
2022/11/15 02:26:33;;;;;;;95.53;72.53;;;;;;;5.41;100.00;101049.91;5033644;28;20471;-46
2022/11/15 02:29:05;;;;;;;94.90;73.67;;;;;;;5.48;100.00;101048.31;5033475;28;20987;-45
2022/11/15 02:31:45;;;;;;;94.53;74.80;;;;;;;5.52;100.00;101042.56;5033407;28;20464;-45
2022/11/15 02:34:22;;;;;;;90.37;70.63;;;;;;;5.57;100.00;101045.56;5033203;28;20546;-47
2022/11/15 02:37:01;;;;;;;96.37;72.73;;;;;;;5.63;100.00;101045.91;5033342;28;20840;-47
2022/11/15 02:39:36;;;;;;;91.53;71.13;;;;;;;5.68;100.00;101052.41;5032486;28;20428;-46
2022/11/15 02:43:56;;;;;;;82.33;70.10;;;;;;;5.73;100.00;101049.28;5033310;28;20448;-48
2022/11/15 02:44:58;;;;;;;90.20;71.77;;;;;;;5.76;100.00;101041.88;5032664;28;20518;-47
2022/11/15 02:47:30;;;;;;;87.53;70.23;;;;;;;5.81;100.00;101044.03;5033182;28;20436;-46
2022/11/15 02:50:01;;;;;;;85.40;69.90;;;;;;;5.83;100.00;101045.53;5033107;28;20475;-45
2022/11/15 02:52:29;;;;;;;91.47;70.20;;;;;;;5.87;100.00;101052.22;5031678;28;20498;-47
2022/11/15 02:54:58;;;;;;;84.00;67.60;;;;;;;5.88;100.00;101040.63;5052717;28;20516;-47
2022/11/15 02:57:36;;;;;;;84.10;71.43;;;;;;;5.89;100.00;101033.50;5053052;28;20450;-46
2022/11/15 03:00:07;;;;;;;78.17;69.70;;;;;;;5.85;100.00;101029.50;5052965;28;20424;-45
2022/11/15 03:03:05;;;;;;;85.07;69.63;;;;;;;5.81;100.00;101023.69;5052781;28;21018;-46
2022/11/15 03:05:38;;;;;;;80.83;65.43;;;;;;;5.76;100.00;101028.63;5052426;28;20463;-46
2022/11/15 03:08:11;;;;;;;81.00;65.70;;;;;;;5.72;100.00;101023.81;5052886;28;20471;-46
2022/11/15 03:10:46;;;;;;;80.27;67.23;;;;;;;5.67;100.00;101012.88;5053232;28;20419;-45
2022/11/15 03:13:25;;;;;;;91.13;68.43;;;;;;;5.64;100.00;100999.97;5053260;28;20431;-46
2022/11/15 03:16:02;;;;;;;73.40;64.70;;;;;;;5.59;100.00;101005.72;5052748;28;20774;-47
2022/11/15 03:18:36;;;;;;;70.50;62.67;;;;;;;5.56;100.00;101006.03;5053089;28;20412;-45
2022/11/15 03:21:07;;;;;;;79.23;67.70;;;;;;;5.52;100.00;101000.25;5052471;28;20513;-46
2022/11/15 03:23:37;;;;;;;71.60;63.87;;;;;;;5.52;100.00;101002.06;5052236;28;20428;-49
2022/11/15 03:26:08;;;;;;;69.43;62.37;;;;;;;5.49;100.00;100991.78;5052811;28;20423;-46
2022/11/15 03:28:40;;;;;;;80.90;68.23;;;;;;;5.46;100.00;100984.19;5052343;28;21171;-46
2022/11/15 03:33:58;;;;;;;73.57;65.67;;;;;;;5.35;100.00;100972.03;5051660;28;20463;-48
2022/11/15 03:36:26;;;;;;;77.60;68.27;;;;;;;5.32;100.00;100969.72;5052311;28;20404;-46
2022/11/15 03:38:57;;;;;;;77.43;64.57;;;;;;;5.29;100.00;100977.13;5052243;28;20435;-47
2022/11/15 03:41:31;;;;;;;79.90;65.90;;;;;;;5.25;100.00;100965.22;5051888;28;20836;-45
2022/11/15 03:44:10;;;;;;;74.17;64.50;;;;;;;5.21;100.00;100969.16;5051819;28;20455;-49
2022/11/15 03:46:45;;;;;;;78.27;65.13;;;;;;;5.20;100.00;100959.53;5052274;28;20431;-46
2022/11/15 03:49:20;;;;;;;83.33;66.53;;;;;;;5.15;100.00;100975.06;5051973;28;21101;-48
2022/11/15 03:51:48;;;;;;;74.60;64.70;;;;;;;5.10;100.00;100977.34;5049007;28;20530;-46
2022/11/15 03:54:16;;;;;;;83.17;67.37;;;;;;;5.08;100.00;100963.47;5043352;28;20513;-49
2022/11/15 03:56:43;;;;;;;73.60;65.60;;;;;;;5.06;100.00;100968.91;5043347;28;20435;-44
2022/11/15 03:59:11;;;;;;;78.67;67.37;;;;;;;5.03;100.00;100971.84;5032480;28;20486;-45
2022/11/15 04:01:38;;;;;;;75.67;67.40;;;;;;;5.00;100.00;100967.72;5032849;28;20510;-46
2022/11/15 04:04:06;;;;;;;76.87;65.57;;;;;;;4.98;100.00;100968.84;5029396;28;20464;-45
2022/11/15 04:06:35;;;;;;;72.87;63.63;;;;;;;4.95;100.00;100970.00;5042484;28;20912;-45
2022/11/15 04:09:03;;;;;;;73.63;64.43;;;;;;;4.92;100.00;100975.59;5051850;28;20471;-46
2022/11/15 04:11:30;;;;;;;74.27;64.63;;;;;;;4.91;100.00;100979.19;5051849;28;20447;-48
2022/11/15 04:13:58;;;;;;;71.83;64.63;;;;;;;4.87;100.00;100992.88;5051359;28;20463;-47
2022/11/15 04:16:25;;;;;;;87.07;70.57;;;;;;;4.84;100.00;100991.34;5051477;28;20781;-45
2022/11/15 04:24:23;;;;;;;76.53;66.80;;;;;;;4.74;100.00;101001.22;5033569;28;20536;-47
2022/11/15 04:26:51;;;;;;;73.97;64.93;;;;;;;4.72;100.00;100997.88;5051876;28;20439;-46
2022/11/15 04:29:37;;;;;;;79.47;68.27;;;;;;;4.68;100.00;100996.53;5051685;28;20498;-47
2022/11/15 04:32:06;;;;;;;83.43;69.03;;;;;;;4.67;100.00;100991.38;5051315;28;20517;-46
2022/11/15 04:34:34;;;;;;;81.50;67.70;;;;;;;4.65;100.00;100991.56;5051183;28;20513;-46
2022/11/15 04:37:15;;;;;;;70.07;62.17;;;;;;;4.60;100.00;100996.44;5051755;28;20442;-46
2022/11/15 04:39:44;;;;;;;77.70;63.63;;;;;;;4.56;100.00;100991.63;5051617;28;20431;-45
2022/11/15 04:42:11;;;;;;;78.73;65.20;;;;;;;4.52;100.00;100999.03;5051483;28;20469;-45
2022/11/15 04:44:39;;;;;;;88.27;66.97;;;;;;;4.47;100.00;100996.84;5051171;28;20468;-46
2022/11/15 04:47:07;;;;;;;77.47;65.80;;;;;;;4.47;100.00;100994.19;5051382;28;20431;-46
2022/11/15 04:49:34;;;;;;;71.43;62.63;;;;;;;4.45;100.00;100990.88;5051403;28;20470;-45
2022/11/15 04:52:03;;;;;;;85.97;64.10;;;;;;;4.42;100.00;100999.09;5051372;28;20447;-45
2022/11/15 04:54:31;;;;;;;83.03;65.17;;;;;;;4.41;100.00;100999.25;5042765;28;20460;-47
2022/11/15 04:56:58;;;;;;;74.13;64.43;;;;;;;4.38;100.00;100994.28;5051582;28;20871;-47
2022/11/15 04:59:26;;;;;;;73.43;63.73;;;;;;;4.37;100.00;100993.44;5051391;28;20933;-48
2022/11/15 05:01:54;;;;;;;80.87;66.37;;;;;;;4.33;100.00;101007.91;5051561;28;20450;-49
2022/11/15 05:04:20;;;;;;;71.83;63.67;;;;;;;4.32;100.00;101010.72;5054637;28;20462;-45
2022/11/15 05:06:49;;;;;;;82.10;61.33;;;;;;;4.31;100.00;101014.31;5055040;28;20932;-48
2022/11/15 05:09:19;;;;;;;77.13;65.90;;;;;;;4.33;100.00;101012.38;5055123;28;20813;-47
2022/11/15 05:11:47;;;;;;;79.33;65.00;;;;;;;4.32;100.00;101014.19;5055459;28;20516;-45
2022/11/15 05:14:15;;;;;;;77.63;65.00;;;;;;;4.34;100.00;101024.59;5054495;28;20528;-45
2022/11/15 05:16:43;;;;;;;75.90;62.77;;;;;;;4.35;100.00;101011.25;5055189;28;20488;-45
2022/11/15 05:19:11;;;;;;;81.40;65.10;;;;;;;4.38;100.00;101012.75;5055048;28;20435;-47
2022/11/15 05:21:39;;;;;;;84.53;66.20;;;;;;;4.38;100.00;100999.56;5054782;28;20505;-49
2022/11/15 05:24:07;;;;;;;87.60;65.70;;;;;;;4.38;100.00;101002.19;5054248;28;20524;-49
2022/11/15 05:26:36;;;;;;;76.00;65.67;;;;;;;4.38;100.00;101002.19;5054876;28;20431;-45
2022/11/15 05:29:04;;;;;;;74.53;63.50;;;;;;;4.37;100.00;101000.53;5054622;28;20800;-49
2022/11/15 05:31:31;;;;;;;82.43;65.73;;;;;;;4.35;100.00;101008.59;5054351;28;20497;-46
2022/11/15 05:34:02;;;;;;;71.40;61.80;;;;;;;4.33;100.00;101013.19;5054018;28;20554;-46
2022/11/15 05:36:35;;;;;;;84.33;67.33;;;;;;;4.32;100.00;101013.34;5054492;28;20436;-46
2022/11/15 05:39:05;;;;;;;88.10;68.80;;;;;;;4.30;100.00;101012.69;5054838;28;20477;-48
2022/11/15 05:41:36;;;;;;;71.90;62.50;;;;;;;4.28;100.00;101018.09;5054343;28;20512;-49
2022/11/15 05:44:08;;;;;;;74.40;61.10;;;;;;;4.28;100.00;101009.34;5053982;28;20455;-44
2022/11/15 05:46:38;;;;;;;75.00;61.97;;;;;;;4.26;100.00;101021.88;5054260;28;20928;-46
2022/11/15 05:49:08;;;;;;;86.47;65.17;;;;;;;4.25;100.00;101015.75;5054436;28;20497;-45
2022/11/15 05:51:35;;;;;;;77.60;63.80;;;;;;;4.24;100.00;100984.25;5051300;28;20452;-47
2022/11/15 05:54:03;;;;;;;75.13;66.00;;;;;;;4.27;100.00;100992.66;5045291;28;20460;-46
2022/11/15 05:56:31;;;;;;;71.57;62.50;;;;;;;4.27;100.00;101000.59;5054026;28;20473;-44
2022/11/15 05:58:59;;;;;;;76.23;61.67;;;;;;;4.31;100.00;101001.13;5053879;28;20485;-48
2022/11/15 06:01:28;;;;;;;77.60;62.70;;;;;;;4.32;100.00;101010.72;5053843;28;20863;-48
2022/11/15 06:03:56;;;;;;;71.43;62.20;;;;;;;4.33;100.00;101020.31;5053551;28;20467;-46
2022/11/15 06:06:23;;;;;;;71.17;63.13;;;;;;;4.32;100.00;101016.81;5053701;28;20928;-46
2022/11/15 06:08:51;;;;;;;72.27;61.23;;;;;;;4.36;100.00;101031.38;5053810;28;20493;-46
2022/11/15 06:11:19;;;;;;;72.10;64.33;;;;;;;4.41;100.00;101023.00;5053339;28;20829;-47
2022/11/15 06:13:46;;;;;;;75.67;66.27;;;;;;;4.50;100.00;101023.91;5053210;28;21140;-48
2022/11/15 06:16:14;;;;;;;71.27;63.23;;;;;;;4.58;100.00;101024.81;5053550;28;20439;-46
2022/11/15 06:18:43;;;;;;;73.20;65.20;;;;;;;4.67;100.00;101017.81;5053670;28;20509;-46
2022/11/15 06:21:10;;;;;;;80.60;67.13;;;;;;;4.77;100.00;101014.13;5053659;28;20855;-49
2022/11/15 06:23:38;;;;;;;70.83;63.13;;;;;;;4.86;100.00;101018.47;5053439;28;20455;-47
2022/11/15 06:26:06;;;;;;;75.93;64.97;;;;;;;4.95;100.00;101019.38;5053390;28;20851;-45
2022/11/15 06:28:34;;;;;;;70.80;63.47;;;;;;;5.02;100.00;101020.41;5053248;28;20435;-45
2022/11/15 06:31:05;;;;;;;69.83;62.43;;;;;;;5.11;100.00;101023.97;5053140;28;20474;-47
2022/11/15 06:33:32;;;;;;;69.00;62.10;;;;;;;5.17;100.00;101015.41;5053243;28;20412;-50
2022/11/15 06:36:03;;;;;;;70.27;62.80;;;;;;;5.24;100.00;101016.44;5053583;28;20435;-46
2022/11/15 06:38:30;;;;;;;73.07;65.67;;;;;;;5.33;100.00;101013.69;5053184;28;20485;-47
2022/11/15 06:41:02;;;;;;;72.17;64.47;;;;;;;5.41;100.00;101010.25;5052971;28;21014;-46
2022/11/15 06:43:30;;;;;;;69.67;62.57;;;;;;;5.51;100.00;101016.25;5052883;28;20423;-47
2022/11/15 06:45:58;;;;;;;72.33;60.90;;;;;;;5.58;100.00;101001.44;5053184;28;20936;-49
2022/11/15 06:48:26;;;;;;;70.57;63.20;;;;;;;5.65;100.00;101002.44;5053322;28;20435;-47
2022/11/15 06:50:54;;;;;;;74.27;65.90;;;;;;;5.69;100.00;100997.66;5052795;28;20875;-46
2022/11/15 06:53:24;;;;;;;70.30;63.27;;;;;;;5.74;100.00;101000.66;5049374;28;20436;-45
2022/11/15 06:55:52;;;;;;;67.40;60.20;;;;;;;5.79;100.00;100999.22;5033244;28;20961;-44
2022/11/15 06:58:22;;;;;;;69.77;61.23;;;;;;;5.84;100.00;101004.00;5033182;28;20428;-45
2022/11/15 07:00:50;;;;;;;69.10;61.80;;;;;;;5.89;100.00;101002.56;5033070;28;20790;-46
2022/11/15 07:03:17;;;;;;;67.83;61.40;;;;;;;5.95;100.00;101004.59;5032580;28;20771;-47
2022/11/15 07:05:52;;;;;;;66.57;59.87;;;;;;;6.03;100.00;101007.25;5032816;28;20490;-47
2022/11/15 07:08:19;;;;;;;68.60;61.07;;;;;;;6.09;100.00;101006.59;5033067;28;20490;-46
2022/11/15 07:10:49;;;;;;;69.23;61.90;;;;;;;6.13;100.00;101007.13;5032475;28;20472;-46
2022/11/15 07:13:16;;;;;;;70.20;63.20;;;;;;;6.17;100.00;101013.75;5032857;28;20498;-46
2022/11/15 07:15:44;;;;;;;67.67;60.87;;;;;;;6.25;100.00;101016.41;5032357;28;20858;-46
2022/11/15 07:18:11;;;;;;;69.27;61.20;;;;;;;6.32;100.00;101016.59;5032497;28;20933;-45
2022/11/15 07:20:39;;;;;;;70.67;63.27;;;;;;;6.39;100.00;101015.78;5032805;28;20479;-46
2022/11/15 07:23:07;;;;;;;69.27;62.33;;;;;;;6.46;100.00;101008.84;5033150;28;20483;-46
2022/11/15 07:25:35;;;;;;;70.17;63.07;;;;;;;6.54;100.00;101019.44;5031518;28;20472;-46
2022/11/15 07:28:04;;;;;;;69.40;62.60;;;;;;;6.61;100.00;101006.38;5032417;28;20944;-45
2022/11/15 07:30:32;;;;;;;68.03;61.53;;;;;;;6.69;100.00;101004.56;5032159;28;21035;-47
2022/11/15 07:33:01;;;;;;;72.63;65.57;;;;;;;6.78;100.00;101002.72;5034977;22;20486;-46
2022/11/15 07:35:29;;;;;;;69.87;62.50;;;;;;;6.82;100.00;101001.41;5009935;28;20469;-47
2022/11/15 07:37:58;;;;;;;67.07;60.33;;;;;;;6.89;100.00;101006.91;5012470;28;20491;-46
2022/11/15 07:40:26;;;;;;;65.83;59.27;;;;;;;6.96;100.00;101008.69;5012482;28;20480;-46
2022/11/15 07:43:00;;;;;;;66.27;59.50;;;;;;;6.97;100.00;101012.19;5012109;28;20452;-50
2022/11/15 07:45:29;;;;;;;64.50;58.60;;;;;;;6.99;100.00;101011.00;5011866;28;20877;-47
2022/11/15 07:47:57;;;;;;;64.83;58.40;;;;;;;7.01;100.00;101018.81;5012280;28;20505;-48
2022/11/15 07:50:25;;;;;;;65.93;59.10;;;;;;;7.06;100.00;101027.94;5012137;28;20480;-49
2022/11/15 07:52:56;;;;;;;67.70;61.20;;;;;;;7.07;100.00;101021.63;5022003;28;20452;-46
2022/11/15 07:55:24;;;;;;;65.57;59.07;;;;;;;7.05;100.00;101028.91;5013986;28;20881;-49
2022/11/15 07:57:52;;;;;;;66.47;60.20;;;;;;;7.08;100.00;101027.75;5012146;28;20441;-47
2022/11/15 08:00:20;;;;;;;62.33;56.57;;;;;;;7.11;100.00;101022.94;5012270;28;20440;-48
2022/11/15 08:02:49;;;;;;;67.20;61.10;;;;;;;7.11;100.00;101030.06;5011963;28;20449;-48
2022/11/15 08:05:17;;;;;;;64.73;58.20;;;;;;;7.13;100.00;101028.94;5028122;28;20551;-48
2022/11/15 08:07:44;;;;;;;63.90;57.83;;;;;;;7.13;100.00;101028.09;5031839;28;20490;-48
2022/11/15 08:10:13;;;;;;;65.13;59.13;;;;;;;7.22;100.00;101029.75;5031640;28;20506;-51
2022/11/15 08:12:41;;;;;;;62.40;56.47;;;;;;;7.17;100.00;101030.22;5031375;28;20986;-47
2022/11/15 08:15:09;;;;;;;63.33;57.23;;;;;;;7.22;100.00;101027.09;5031216;28;20468;-47
2022/11/15 08:17:37;;;;;;;62.47;56.67;;;;;;;7.26;100.00;101035.53;5031816;28;20429;-47
2022/11/15 08:20:07;;;;;;;62.67;56.83;;;;;;;7.20;100.00;101034.38;5031707;28;20459;-48
2022/11/15 08:22:35;;;;;;;64.70;58.40;;;;;;;7.17;100.00;101030.22;5031351;28;20440;-47
2022/11/15 08:25:02;;;;;;;64.93;58.10;;;;;;;7.19;100.00;101027.44;5031034;28;21052;-48
2022/11/15 08:27:30;;;;;;;63.23;57.13;;;;;;;7.21;100.00;101034.22;5031753;28;20466;-47
2022/11/15 08:29:57;;;;;;;62.60;56.70;;;;;;;7.23;100.00;101042.81;5031714;28;20432;-47
2022/11/15 08:32:26;;;;;;;64.70;58.50;;;;;;;7.28;100.00;101044.16;5031200;28;20538;-50
2022/11/15 08:34:53;;;;;;;62.67;57.27;;;;;;;7.28;100.00;101037.03;5031049;28;20467;-46
2022/11/15 08:37:22;;;;;;;65.77;59.57;;;;;;;7.32;100.00;101041.00;5032621;28;20454;-46
2022/11/15 08:39:50;;;;;;;66.80;60.20;;;;;;;7.41;100.00;101041.78;5035760;28;20436;-47
2022/11/15 08:42:17;;;;;;;65.93;59.73;;;;;;;7.44;100.00;101042.28;5035354;28;20494;-46
2022/11/15 08:44:46;;;;;;;62.83;57.13;;;;;;;7.46;100.00;101032.34;5034920;28;20474;-46
2022/11/15 08:47:14;;;;;;;63.60;57.90;;;;;;;7.43;100.00;101029.22;5035457;28;20478;-47
2022/11/15 08:49:42;;;;;;;63.70;57.80;;;;;;;7.38;100.00;101031.56;5035285;28;20937;-46
2022/11/15 08:52:09;;;;;;;65.30;59.27;;;;;;;7.40;100.00;101042.81;5029684;28;20976;-46
2022/11/15 08:54:38;;;;;;;64.53;58.50;;;;;;;7.41;100.00;101039.16;5034823;28;20533;-45
2022/11/15 08:57:09;;;;;;;64.50;58.50;;;;;;;7.41;100.00;101039.97;5035226;28;20941;-48
2022/11/15 08:59:37;;;;;;;64.33;58.43;;;;;;;7.43;100.00;101042.47;5035112;28;20502;-46
2022/11/15 09:02:04;;;;;;;61.87;56.47;;;;;;;7.50;100.00;101038.97;5034961;28;20444;-48
2022/11/15 09:04:32;;;;;;;63.17;57.33;;;;;;;7.57;100.00;101052.38;5034453;28;20494;-46
2022/11/15 09:07:00;;;;;;;62.03;56.43;;;;;;;7.67;100.00;101048.56;5035011;28;20436;-45
2022/11/15 09:09:27;;;;;;;62.90;57.40;;;;;;;7.73;100.00;101041.75;5034986;28;20439;-47
2022/11/15 09:11:56;;;;;;;61.03;55.53;;;;;;;7.78;100.00;101045.53;5034499;28;20472;-46
2022/11/15 09:14:29;;;;;;;60.83;55.27;;;;;;;7.82;100.00;101049.47;5034546;28;20507;-45
2022/11/15 09:16:57;;;;;;;63.40;57.80;;;;;;;7.89;100.00;101049.63;5034747;28;20455;-45
2022/11/15 09:19:24;;;;;;;60.40;55.00;;;;;;;7.95;100.00;101058.75;5035059;28;20489;-46
2022/11/15 09:21:52;;;;;;;62.20;56.37;;;;;;;8.01;100.00;101058.88;5034482;28;20470;-46
2022/11/15 09:24:20;;;;;;;62.43;56.83;;;;;;;8.07;100.00;101062.66;5034482;28;20498;-46
2022/11/15 09:26:50;;;;;;;63.87;58.37;;;;;;;8.09;100.00;101056.22;5034805;28;20454;-46
2022/11/15 09:29:19;;;;;;;65.17;59.57;;;;;;;8.01;100.00;101053.56;5034648;28;20813;-46
2022/11/15 09:31:47;;;;;;;65.77;60.13;;;;;;;8.04;100.00;101060.38;5034270;28;20517;-45
2022/11/15 09:34:15;;;;;;;64.70;59.00;;;;;;;8.07;100.00;101050.22;5034251;28;20459;-47
2022/11/15 09:36:43;;;;;;;62.47;56.87;;;;;;;8.10;100.00;101055.19;5034677;28;20833;-46
2022/11/15 09:39:10;;;;;;;64.30;58.43;;;;;;;8.11;100.00;101056.03;5034593;28;20436;-46
2022/11/15 09:41:59;;;;;;;61.30;55.90;;;;;;;8.12;100.00;101052.38;5033992;28;20451;-49
2022/11/15 09:44:42;;;;;;;61.27;55.63;;;;;;;8.16;100.00;101049.19;5034026;28;20873;-47
2022/11/15 09:47:36;;;;;;;59.43;53.93;;;;;;;8.15;100.00;101047.53;5034279;28;20486;-45
2022/11/15 09:50:10;;;;;;;59.43;54.27;;;;;;;8.12;100.00;101050.53;5034275;28;20464;-48
2022/11/15 09:52:42;;;;;;;60.90;55.63;;;;;;;8.15;100.00;101047.53;5028698;28;20986;-50
2022/11/15 09:55:13;;;;;;;60.23;54.90;;;;;;;8.23;100.00;101046.66;5033703;28;20880;-47
2022/11/15 09:57:48;;;;;;;59.63;54.20;;;;;;;8.32;100.00;101043.84;5034090;28;20991;-47
2022/11/15 10:00:21;;;;;;;62.20;56.27;;;;;;;8.43;100.00;101039.09;5034116;28;20443;-46
2022/11/15 10:03:11;;;;;;;62.40;56.47;;;;;;;8.55;100.00;101037.69;5033719;28;20480;-46
2022/11/15 10:05:41;;;;;;;63.53;57.73;;;;;;;8.58;100.00;101032.88;5033428;28;20519;-45
2022/11/15 10:08:26;;;;;;;59.90;54.70;;;;;;;8.62;100.00;101036.84;5033954;28;20432;-46
2022/11/15 10:11:02;;;;;;;60.33;55.20;;;;;;;8.67;100.00;101025.66;5033729;28;20428;-48
2022/11/15 10:13:52;;;;;;;59.23;54.17;;;;;;;8.75;100.00;101030.94;5033118;28;20523;-50
2022/11/15 10:16:50;;;;;;;60.70;55.30;;;;;;;8.82;100.00;101022.06;5033965;28;20436;-46
2022/11/15 10:19:27;;;;;;;59.47;54.47;;;;;;;8.84;100.00;101005.94;5030947;28;20444;-46
2022/11/15 10:22:07;;;;;;;61.90;56.87;;;;;;;8.84;100.00;101009.41;5033356;28;20498;-45
2022/11/15 10:24:40;;;;;;;57.30;52.57;;;;;;;8.88;100.00;101008.06;5033322;28;20864;-48
2022/11/15 10:27:11;;;;;;;56.30;51.83;;;;;;;8.89;100.00;101006.22;5033707;28;20424;-46
2022/11/15 10:29:44;;;;;;;58.37;53.07;;;;;;;8.87;100.00;101008.22;5033526;28;20823;-49
2022/11/15 10:32:14;;;;;;;56.73;52.17;;;;;;;8.89;100.00;101008.88;5032883;28;20476;-46
2022/11/15 10:34:42;;;;;;;60.97;55.90;;;;;;;8.88;100.00;101007.22;5033250;28;20463;-46
2022/11/15 10:37:10;;;;;;;58.97;53.60;;;;;;;8.91;100.00;101004.19;5033339;28;20436;-47
2022/11/15 10:39:38;;;;;;;55.73;51.07;;;;;;;8.95;100.00;101007.34;5033506;28;20486;-47
2022/11/15 10:42:26;;;;;;;58.73;54.00;;;;;;;8.95;100.00;101013.50;5032906;28;20965;-47
2022/11/15 10:44:54;;;;;;;60.13;53.90;;;;;;;8.92;100.00;101010.34;5032779;28;20518;-46
2022/11/15 10:47:30;;;;;;;58.23;53.57;;;;;;;8.99;100.00;101004.13;5033092;28;20436;-47
2022/11/15 10:50:08;;;;;;;57.53;52.83;;;;;;;9.05;100.00;100995.41;5033309;28;20901;-47
2022/11/15 10:52:37;;;;;;;56.07;51.47;;;;;;;9.09;100.00;100999.38;5027549;28;20614;-46
2022/11/15 10:55:23;;;;;;;56.30;51.80;;;;;;;9.15;100.00;101009.31;5032304;28;20522;-45
2022/11/15 10:57:53;;;;;;;57.57;52.40;;;;;;;9.20;100.00;100998.13;5033259;28;20439;-45
2022/11/15 11:00:31;;;;;;;56.20;50.90;;;;;;;9.32;100.00;101005.47;5032208;28;20844;-47
2022/11/15 11:03:02;;;;;;;56.10;51.43;;;;;;;9.31;100.00;101000.34;5032564;28;20471;-46
2022/11/15 11:05:32;;;;;;;55.83;51.27;;;;;;;9.39;100.00;100995.75;5032484;28;20464;-46
2022/11/15 11:08:22;;;;;;;58.80;53.97;;;;;;;9.43;100.00;100991.72;5032978;28;20420;-46
2022/11/15 11:10:54;;;;;;;56.27;51.70;;;;;;;9.47;100.00;100989.50;5032570;28;20851;-48
2022/11/15 11:13:30;;;;;;;54.53;50.20;;;;;;;9.54;100.00;100986.94;5032100;28;20814;-45
2022/11/15 11:16:09;;;;;;;56.70;52.27;;;;;;;9.53;100.00;100982.66;5032908;28;20436;-50
2022/11/15 11:18:45;;;;;;;55.27;51.00;;;;;;;9.55;100.00;100988.59;5032845;28;20811;-47
2022/11/15 11:21:18;;;;;;;61.20;55.33;;;;;;;9.52;100.00;100984.47;5032254;28;20481;-48
2022/11/15 11:23:52;;;;;;;61.23;55.20;;;;;;;9.53;100.00;100985.31;5032157;28;20482;-48
2022/11/15 11:26:36;;;;;;;58.97;54.03;;;;;;;9.55;100.00;100991.28;5032737;28;20462;-48
2022/11/15 11:29:19;;;;;;;57.83;53.20;;;;;;;9.58;100.00;100988.25;5032596;28;20436;-47
2022/11/15 11:31:57;;;;;;;60.50;55.27;;;;;;;9.59;100.00;100982.72;5032065;28;20517;-48
2022/11/15 11:34:36;;;;;;;55.60;51.10;;;;;;;9.59;100.00;100977.38;5031961;28;20459;-50